sensor_id;sensor_type;location;lat;lon;timestamp;P1;durP1;ratioP1;P2;durP2;ratioP2
61206;SDS011;47070;49.212;8.084;2022-07-24T00:02:32;8.27;;;5.82;;
61206;SDS011;47070;49.212;8.084;2022-07-24T00:06:32;6.45;;;5.30;;
61206;SDS011;47070;49.212;8.084;2022-07-24T00:10:33;7.07;;;6.22;;
61206;SDS011;47070;49.212;8.084;2022-07-24T00:14:34;5.47;;;4.90;;
61206;SDS011;47070;49.212;8.084;2022-07-24T00:18:34;6.18;;;5.10;;
61206;SDS011;47070;49.212;8.084;2022-07-24T00:22:35;8.65;;;6.38;;
61206;SDS011;47070;49.212;8.084;2022-07-24T00:26:36;7.43;;;5.15;;
61206;SDS011;47070;49.212;8.084;2022-07-24T00:30:36;6.82;;;5.63;;
61206;SDS011;47070;49.212;8.084;2022-07-24T00:34:37;7.82;;;5.75;;
61206;SDS011;47070;49.212;8.084;2022-07-24T00:38:38;5.93;;;4.88;;
61206;SDS011;47070;49.212;8.084;2022-07-24T00:42:38;6.25;;;4.70;;
61206;SDS011;47070;49.212;8.084;2022-07-24T00:46:40;6.15;;;5.03;;
61206;SDS011;47070;49.212;8.084;2022-07-24T00:50:42;7.03;;;5.20;;
61206;SDS011;47070;49.212;8.084;2022-07-24T00:54:44;5.35;;;4.55;;
61206;SDS011;47070;49.212;8.084;2022-07-24T00:58:45;6.97;;;4.78;;
61206;SDS011;47070;49.212;8.084;2022-07-24T01:02:47;7.82;;;5.50;;
61206;SDS011;47070;49.212;8.084;2022-07-24T01:06:49;8.75;;;5.13;;
61206;SDS011;47070;49.212;8.084;2022-07-24T01:10:50;6.22;;;5.07;;
61206;SDS011;47070;49.212;8.084;2022-07-24T01:14:51;6.68;;;5.65;;
61206;SDS011;47070;49.212;8.084;2022-07-24T01:18:51;6.90;;;5.82;;
61206;SDS011;47070;49.212;8.084;2022-07-24T01:22:52;7.32;;;5.10;;
61206;SDS011;47070;49.212;8.084;2022-07-24T01:26:52;5.57;;;4.72;;
61206;SDS011;47070;49.212;8.084;2022-07-24T01:30:53;7.10;;;4.90;;
61206;SDS011;47070;49.212;8.084;2022-07-24T01:34:53;6.03;;;5.03;;
61206;SDS011;47070;49.212;8.084;2022-07-24T01:38:54;6.45;;;5.35;;
61206;SDS011;47070;49.212;8.084;2022-07-24T01:42:54;6.97;;;5.28;;
61206;SDS011;47070;49.212;8.084;2022-07-24T01:46:55;9.23;;;5.03;;
61206;SDS011;47070;49.212;8.084;2022-07-24T01:50:56;5.57;;;4.50;;
61206;SDS011;47070;49.212;8.084;2022-07-24T01:54:56;7.13;;;5.22;;
61206;SDS011;47070;49.212;8.084;2022-07-24T01:58:57;6.53;;;4.70;;
61206;SDS011;47070;49.212;8.084;2022-07-24T02:02:57;8.75;;;5.03;;
61206;SDS011;47070;49.212;8.084;2022-07-24T02:06:58;6.45;;;5.22;;
61206;SDS011;47070;49.212;8.084;2022-07-24T02:10:58;5.85;;;5.05;;
61206;SDS011;47070;49.212;8.084;2022-07-24T02:14:59;6.78;;;4.90;;
61206;SDS011;47070;49.212;8.084;2022-07-24T02:19:00;8.43;;;5.18;;
61206;SDS011;47070;49.212;8.084;2022-07-24T02:23:00;5.75;;;4.85;;
61206;SDS011;47070;49.212;8.084;2022-07-24T02:27:01;7.63;;;5.18;;
61206;SDS011;47070;49.212;8.084;2022-07-24T02:31:01;4.97;;;4.43;;
61206;SDS011;47070;49.212;8.084;2022-07-24T02:35:02;5.18;;;4.43;;
61206;SDS011;47070;49.212;8.084;2022-07-24T02:39:03;5.38;;;4.75;;
61206;SDS011;47070;49.212;8.084;2022-07-24T02:43:03;5.68;;;4.88;;
61206;SDS011;47070;49.212;8.084;2022-07-24T02:47:04;6.43;;;5.22;;
61206;SDS011;47070;49.212;8.084;2022-07-24T02:51:05;6.10;;;4.90;;
61206;SDS011;47070;49.212;8.084;2022-07-24T02:55:05;5.25;;;4.57;;
61206;SDS011;47070;49.212;8.084;2022-07-24T02:59:07;6.25;;;4.72;;
61206;SDS011;47070;49.212;8.084;2022-07-24T03:03:07;4.97;;;4.45;;
61206;SDS011;47070;49.212;8.084;2022-07-24T03:07:08;6.22;;;4.22;;
61206;SDS011;47070;49.212;8.084;2022-07-24T03:11:08;5.07;;;4.57;;
61206;SDS011;47070;49.212;8.084;2022-07-24T03:15:09;5.13;;;4.43;;
61206;SDS011;47070;49.212;8.084;2022-07-24T03:19:11;5.38;;;4.00;;
61206;SDS011;47070;49.212;8.084;2022-07-24T03:23:11;7.43;;;4.72;;
61206;SDS011;47070;49.212;8.084;2022-07-24T03:27:12;4.95;;;4.00;;
61206;SDS011;47070;49.212;8.084;2022-07-24T03:31:12;8.18;;;5.13;;
61206;SDS011;47070;49.212;8.084;2022-07-24T03:35:13;5.85;;;4.68;;
61206;SDS011;47070;49.212;8.084;2022-07-24T03:39:13;6.15;;;4.78;;
61206;SDS011;47070;49.212;8.084;2022-07-24T03:43:14;7.13;;;4.15;;
61206;SDS011;47070;49.212;8.084;2022-07-24T03:47:15;5.53;;;4.55;;
61206;SDS011;47070;49.212;8.084;2022-07-24T03:51:15;4.90;;;4.40;;
61206;SDS011;47070;49.212;8.084;2022-07-24T03:55:16;6.35;;;4.70;;
61206;SDS011;47070;49.212;8.084;2022-07-24T03:59:17;4.65;;;4.13;;
61206;SDS011;47070;49.212;8.084;2022-07-24T04:03:18;5.45;;;4.05;;
61206;SDS011;47070;49.212;8.084;2022-07-24T04:07:19;5.97;;;4.18;;
61206;SDS011;47070;49.212;8.084;2022-07-24T04:11:19;4.78;;;4.07;;
61206;SDS011;47070;49.212;8.084;2022-07-24T04:15:20;5.68;;;4.07;;
61206;SDS011;47070;49.212;8.084;2022-07-24T04:19:20;5.10;;;4.10;;
61206;SDS011;47070;49.212;8.084;2022-07-24T04:23:21;4.93;;;4.25;;
61206;SDS011;47070;49.212;8.084;2022-07-24T04:27:21;5.53;;;4.00;;
61206;SDS011;47070;49.212;8.084;2022-07-24T04:31:21;5.43;;;4.32;;
61206;SDS011;47070;49.212;8.084;2022-07-24T04:35:22;5.38;;;3.80;;
61206;SDS011;47070;49.212;8.084;2022-07-24T04:39:23;5.15;;;3.88;;
61206;SDS011;47070;49.212;8.084;2022-07-24T04:43:23;4.80;;;3.75;;
61206;SDS011;47070;49.212;8.084;2022-07-24T04:47:24;5.78;;;4.10;;
61206;SDS011;47070;49.212;8.084;2022-07-24T04:51:24;4.93;;;4.03;;
61206;SDS011;47070;49.212;8.084;2022-07-24T04:55:25;4.95;;;4.20;;
61206;SDS011;47070;49.212;8.084;2022-07-24T04:59:25;5.57;;;4.20;;
61206;SDS011;47070;49.212;8.084;2022-07-24T05:03:26;4.90;;;4.40;;
61206;SDS011;47070;49.212;8.084;2022-07-24T05:07:26;4.93;;;4.43;;
61206;SDS011;47070;49.212;8.084;2022-07-24T05:11:27;7.32;;;4.60;;
61206;SDS011;47070;49.212;8.084;2022-07-24T05:15:27;5.32;;;4.82;;
61206;SDS011;47070;49.212;8.084;2022-07-24T05:19:28;5.63;;;4.63;;
61206;SDS011;47070;49.212;8.084;2022-07-24T05:23:28;5.45;;;4.47;;
61206;SDS011;47070;49.212;8.084;2022-07-24T05:27:29;6.82;;;4.95;;
61206;SDS011;47070;49.212;8.084;2022-07-24T05:31:29;8.38;;;4.97;;
61206;SDS011;47070;49.212;8.084;2022-07-24T05:35:30;9.75;;;5.18;;
61206;SDS011;47070;49.212;8.084;2022-07-24T05:39:31;5.68;;;4.72;;
61206;SDS011;47070;49.212;8.084;2022-07-24T05:43:31;5.38;;;4.38;;
61206;SDS011;47070;49.212;8.084;2022-07-24T05:47:36;4.43;;;3.88;;
61206;SDS011;47070;49.212;8.084;2022-07-24T05:51:37;4.82;;;4.00;;
61206;SDS011;47070;49.212;8.084;2022-07-24T05:55:38;5.72;;;4.05;;
61206;SDS011;47070;49.212;8.084;2022-07-24T05:59:38;5.13;;;4.63;;
61206;SDS011;47070;49.212;8.084;2022-07-24T06:03:39;5.55;;;4.50;;
61206;SDS011;47070;49.212;8.084;2022-07-24T06:07:40;4.88;;;4.05;;
61206;SDS011;47070;49.212;8.084;2022-07-24T06:11:41;6.55;;;4.13;;
61206;SDS011;47070;49.212;8.084;2022-07-24T06:15:41;7.72;;;4.30;;
61206;SDS011;47070;49.212;8.084;2022-07-24T06:19:42;5.85;;;4.63;;
61206;SDS011;47070;49.212;8.084;2022-07-24T06:23:42;4.78;;;4.32;;
61206;SDS011;47070;49.212;8.084;2022-07-24T06:27:47;6.57;;;4.78;;
61206;SDS011;47070;49.212;8.084;2022-07-24T06:31:49;5.43;;;4.63;;
61206;SDS011;47070;49.212;8.084;2022-07-24T06:35:50;5.35;;;4.18;;
61206;SDS011;47070;49.212;8.084;2022-07-24T06:39:50;4.95;;;4.20;;
61206;SDS011;47070;49.212;8.084;2022-07-24T06:43:51;5.80;;;4.00;;
61206;SDS011;47070;49.212;8.084;2022-07-24T06:47:54;4.38;;;3.97;;
61206;SDS011;47070;49.212;8.084;2022-07-24T06:51:55;4.72;;;3.05;;
61206;SDS011;47070;49.212;8.084;2022-07-24T06:55:55;4.32;;;3.47;;
61206;SDS011;47070;49.212;8.084;2022-07-24T06:59:56;4.03;;;3.63;;
61206;SDS011;47070;49.212;8.084;2022-07-24T07:03:56;4.40;;;3.45;;
61206;SDS011;47070;49.212;8.084;2022-07-24T07:07:57;3.92;;;3.38;;
61206;SDS011;47070;49.212;8.084;2022-07-24T07:11:57;4.72;;;3.17;;
61206;SDS011;47070;49.212;8.084;2022-07-24T07:15:58;4.13;;;3.72;;
61206;SDS011;47070;49.212;8.084;2022-07-24T07:19:58;4.35;;;3.35;;
61206;SDS011;47070;49.212;8.084;2022-07-24T07:23:59;4.32;;;3.80;;
61206;SDS011;47070;49.212;8.084;2022-07-24T07:27:59;4.55;;;3.67;;
61206;SDS011;47070;49.212;8.084;2022-07-24T07:32:00;6.35;;;3.63;;
61206;SDS011;47070;49.212;8.084;2022-07-24T07:36:00;4.90;;;3.30;;
61206;SDS011;47070;49.212;8.084;2022-07-24T07:40:01;4.88;;;3.90;;
61206;SDS011;47070;49.212;8.084;2022-07-24T07:44:02;6.93;;;4.00;;
61206;SDS011;47070;49.212;8.084;2022-07-24T07:48:03;4.45;;;3.67;;
61206;SDS011;47070;49.212;8.084;2022-07-24T07:52:04;4.97;;;3.55;;
61206;SDS011;47070;49.212;8.084;2022-07-24T07:56:04;4.28;;;3.40;;
61206;SDS011;47070;49.212;8.084;2022-07-24T08:00:05;4.00;;;3.50;;
61206;SDS011;47070;49.212;8.084;2022-07-24T08:04:07;4.75;;;3.63;;
61206;SDS011;47070;49.212;8.084;2022-07-24T08:08:07;3.75;;;3.28;;
61206;SDS011;47070;49.212;8.084;2022-07-24T08:12:08;4.30;;;3.70;;
61206;SDS011;47070;49.212;8.084;2022-07-24T08:16:08;4.30;;;3.78;;
61206;SDS011;47070;49.212;8.084;2022-07-24T08:20:09;3.80;;;3.30;;
61206;SDS011;47070;49.212;8.084;2022-07-24T08:24:10;5.53;;;3.85;;
61206;SDS011;47070;49.212;8.084;2022-07-24T08:28:11;4.38;;;3.78;;
61206;SDS011;47070;49.212;8.084;2022-07-24T08:32:11;5.40;;;4.07;;
61206;SDS011;47070;49.212;8.084;2022-07-24T08:36:12;3.92;;;3.53;;
61206;SDS011;47070;49.212;8.084;2022-07-24T08:40:12;5.93;;;3.47;;
61206;SDS011;47070;49.212;8.084;2022-07-24T08:44:14;5.63;;;3.95;;
61206;SDS011;47070;49.212;8.084;2022-07-24T08:48:14;3.97;;;2.45;;
61206;SDS011;47070;49.212;8.084;2022-07-24T08:52:16;6.53;;;3.10;;
61206;SDS011;47070;49.212;8.084;2022-07-24T08:56:21;3.25;;;2.92;;
61206;SDS011;47070;49.212;8.084;2022-07-24T09:00:21;8.95;;;4.00;;
61206;SDS011;47070;49.212;8.084;2022-07-24T09:04:32;3.38;;;2.75;;
61206;SDS011;47070;49.212;8.084;2022-07-24T09:09:00;7.47;;;3.72;;
61206;SDS011;47070;49.212;8.084;2022-07-24T09:13:16;4.75;;;3.50;;
61206;SDS011;47070;49.212;8.084;2022-07-24T09:17:18;4.05;;;3.65;;
61206;SDS011;47070;49.212;8.084;2022-07-24T09:21:20;2.63;;;2.42;;
61206;SDS011;47070;49.212;8.084;2022-07-24T09:25:22;2.63;;;2.33;;
61206;SDS011;47070;49.212;8.084;2022-07-24T09:29:25;2.63;;;2.28;;
61206;SDS011;47070;49.212;8.084;2022-07-24T09:33:25;2.75;;;2.50;;
61206;SDS011;47070;49.212;8.084;2022-07-24T09:37:26;2.40;;;2.20;;
61206;SDS011;47070;49.212;8.084;2022-07-24T09:41:27;6.65;;;3.63;;
61206;SDS011;47070;49.212;8.084;2022-07-24T09:45:28;3.10;;;2.63;;
61206;SDS011;47070;49.212;8.084;2022-07-24T09:49:29;6.55;;;3.15;;
61206;SDS011;47070;49.212;8.084;2022-07-24T09:53:31;5.75;;;3.90;;
61206;SDS011;47070;49.212;8.084;2022-07-24T09:57:32;3.88;;;3.13;;
61206;SDS011;47070;49.212;8.084;2022-07-24T10:01:33;3.03;;;2.72;;
61206;SDS011;47070;49.212;8.084;2022-07-24T10:05:34;2.70;;;2.50;;
61206;SDS011;47070;49.212;8.084;2022-07-24T10:09:40;5.15;;;2.90;;
61206;SDS011;47070;49.212;8.084;2022-07-24T10:13:42;2.63;;;2.40;;
61206;SDS011;47070;49.212;8.084;2022-07-24T10:17:49;3.15;;;2.80;;
61206;SDS011;47070;49.212;8.084;2022-07-24T10:22:13;7.22;;;4.32;;
61206;SDS011;47070;49.212;8.084;2022-07-24T10:26:19;3.65;;;2.63;;
61206;SDS011;47070;49.212;8.084;2022-07-24T10:30:37;2.22;;;2.03;;
61206;SDS011;47070;49.212;8.084;2022-07-24T10:39:13;2.70;;;2.30;;
61206;SDS011;47070;49.212;8.084;2022-07-24T10:43:21;2.58;;;2.38;;
61206;SDS011;47070;49.212;8.084;2022-07-24T10:47:25;4.78;;;3.92;;
61206;SDS011;47070;49.212;8.084;2022-07-24T10:51:25;4.03;;;3.13;;
61206;SDS011;47070;49.212;8.084;2022-07-24T10:59:35;2.55;;;2.35;;
61206;SDS011;47070;49.212;8.084;2022-07-24T11:03:37;4.93;;;3.45;;
61206;SDS011;47070;49.212;8.084;2022-07-24T11:07:37;2.83;;;2.63;;
61206;SDS011;47070;49.212;8.084;2022-07-24T11:11:41;4.25;;;2.90;;
61206;SDS011;47070;49.212;8.084;2022-07-24T11:16:16;3.90;;;3.50;;
61206;SDS011;47070;49.212;8.084;2022-07-24T11:20:22;3.90;;;2.80;;
61206;SDS011;47070;49.212;8.084;2022-07-24T11:24:22;4.60;;;2.83;;
61206;SDS011;47070;49.212;8.084;2022-07-24T11:28:24;3.28;;;2.97;;
61206;SDS011;47070;49.212;8.084;2022-07-24T11:32:24;6.30;;;3.88;;
61206;SDS011;47070;49.212;8.084;2022-07-24T11:36:28;2.80;;;2.53;;
61206;SDS011;47070;49.212;8.084;2022-07-24T11:40:29;3.42;;;3.13;;
61206;SDS011;47070;49.212;8.084;2022-07-24T11:44:34;4.30;;;3.10;;
61206;SDS011;47070;49.212;8.084;2022-07-24T11:48:35;4.07;;;2.97;;
61206;SDS011;47070;49.212;8.084;2022-07-24T11:52:38;3.20;;;2.30;;
61206;SDS011;47070;49.212;8.084;2022-07-24T11:56:39;4.35;;;3.10;;
61206;SDS011;47070;49.212;8.084;2022-07-24T12:00:40;3.28;;;2.97;;
61206;SDS011;47070;49.212;8.084;2022-07-24T12:04:42;3.75;;;2.70;;
61206;SDS011;47070;49.212;8.084;2022-07-24T12:08:43;4.85;;;2.83;;
61206;SDS011;47070;49.212;8.084;2022-07-24T12:12:43;3.55;;;3.22;;
61206;SDS011;47070;49.212;8.084;2022-07-24T12:16:50;3.17;;;2.88;;
61206;SDS011;47070;49.212;8.084;2022-07-24T12:20:57;3.33;;;2.70;;
61206;SDS011;47070;49.212;8.084;2022-07-24T12:24:59;3.53;;;3.17;;
61206;SDS011;47070;49.212;8.084;2022-07-24T12:29:11;5.40;;;3.17;;
61206;SDS011;47070;49.212;8.084;2022-07-24T12:37:19;4.05;;;3.65;;
61206;SDS011;47070;49.212;8.084;2022-07-24T12:41:22;3.88;;;3.47;;
61206;SDS011;47070;49.212;8.084;2022-07-24T12:45:25;4.15;;;3.28;;
61206;SDS011;47070;49.212;8.084;2022-07-24T12:49:27;2.95;;;2.67;;
61206;SDS011;47070;49.212;8.084;2022-07-24T12:53:42;4.82;;;2.90;;
61206;SDS011;47070;49.212;8.084;2022-07-24T12:57:43;3.03;;;2.72;;
61206;SDS011;47070;49.212;8.084;2022-07-24T13:01:45;4.50;;;3.72;;
61206;SDS011;47070;49.212;8.084;2022-07-24T13:05:54;4.97;;;3.40;;
61206;SDS011;47070;49.212;8.084;2022-07-24T13:09:55;3.83;;;3.40;;
61206;SDS011;47070;49.212;8.084;2022-07-24T13:13:56;3.42;;;3.13;;
61206;SDS011;47070;49.212;8.084;2022-07-24T13:17:56;2.97;;;2.67;;
61206;SDS011;47070;49.212;8.084;2022-07-24T13:21:57;3.78;;;3.35;;
61206;SDS011;47070;49.212;8.084;2022-07-24T13:25:57;4.10;;;3.35;;
61206;SDS011;47070;49.212;8.084;2022-07-24T13:29:58;3.65;;;2.95;;
61206;SDS011;47070;49.212;8.084;2022-07-24T13:33:58;3.00;;;2.60;;
61206;SDS011;47070;49.212;8.084;2022-07-24T13:37:59;3.60;;;2.85;;
61206;SDS011;47070;49.212;8.084;2022-07-24T13:41:59;2.58;;;2.38;;
61206;SDS011;47070;49.212;8.084;2022-07-24T13:46:00;3.83;;;3.00;;
61206;SDS011;47070;49.212;8.084;2022-07-24T13:50:01;4.10;;;3.30;;
61206;SDS011;47070;49.212;8.084;2022-07-24T13:54:01;7.35;;;2.92;;
61206;SDS011;47070;49.212;8.084;2022-07-24T13:58:02;2.75;;;2.22;;
61206;SDS011;47070;49.212;8.084;2022-07-24T14:02:03;2.70;;;2.40;;
61206;SDS011;47070;49.212;8.084;2022-07-24T14:06:03;4.35;;;2.97;;
61206;SDS011;47070;49.212;8.084;2022-07-24T14:10:04;2.80;;;2.50;;
61206;SDS011;47070;49.212;8.084;2022-07-24T14:14:05;2.50;;;2.30;;
61206;SDS011;47070;49.212;8.084;2022-07-24T14:18:06;5.82;;;3.20;;
61206;SDS011;47070;49.212;8.084;2022-07-24T14:22:06;5.82;;;2.97;;
61206;SDS011;47070;49.212;8.084;2022-07-24T14:26:07;2.70;;;2.50;;
61206;SDS011;47070;49.212;8.084;2022-07-24T14:30:08;3.40;;;2.25;;
61206;SDS011;47070;49.212;8.084;2022-07-24T14:34:09;2.83;;;2.50;;
61206;SDS011;47070;49.212;8.084;2022-07-24T14:38:09;2.78;;;2.35;;
61206;SDS011;47070;49.212;8.084;2022-07-24T14:42:10;2.53;;;2.30;;
61206;SDS011;47070;49.212;8.084;2022-07-24T14:46:10;2.80;;;2.50;;
61206;SDS011;47070;49.212;8.084;2022-07-24T14:50:11;5.60;;;3.15;;
61206;SDS011;47070;49.212;8.084;2022-07-24T14:54:11;3.47;;;3.17;;
61206;SDS011;47070;49.212;8.084;2022-07-24T14:58:12;3.13;;;2.63;;
61206;SDS011;47070;49.212;8.084;2022-07-24T15:02:13;3.08;;;2.80;;
61206;SDS011;47070;49.212;8.084;2022-07-24T15:06:13;4.03;;;3.00;;
61206;SDS011;47070;49.212;8.084;2022-07-24T15:10:14;2.88;;;2.67;;
61206;SDS011;47070;49.212;8.084;2022-07-24T15:14:14;3.95;;;2.95;;
61206;SDS011;47070;49.212;8.084;2022-07-24T15:18:15;3.67;;;2.05;;
61206;SDS011;47070;49.212;8.084;2022-07-24T15:22:15;3.20;;;2.90;;
61206;SDS011;47070;49.212;8.084;2022-07-24T15:26:16;3.25;;;2.95;;
61206;SDS011;47070;49.212;8.084;2022-07-24T15:30:17;2.53;;;2.33;;
61206;SDS011;47070;49.212;8.084;2022-07-24T15:34:19;4.70;;;2.85;;
61206;SDS011;47070;49.212;8.084;2022-07-24T15:38:20;3.60;;;2.50;;
61206;SDS011;47070;49.212;8.084;2022-07-24T15:42:20;4.03;;;2.40;;
61206;SDS011;47070;49.212;8.084;2022-07-24T15:46:21;4.43;;;3.03;;
61206;SDS011;47070;49.212;8.084;2022-07-24T15:50:21;3.17;;;2.50;;
61206;SDS011;47070;49.212;8.084;2022-07-24T15:54:22;3.80;;;2.53;;
61206;SDS011;47070;49.212;8.084;2022-07-24T15:58:22;3.28;;;2.50;;
61206;SDS011;47070;49.212;8.084;2022-07-24T16:02:23;3.53;;;2.97;;
61206;SDS011;47070;49.212;8.084;2022-07-24T16:06:24;2.72;;;2.47;;
61206;SDS011;47070;49.212;8.084;2022-07-24T16:10:24;2.58;;;2.10;;
61206;SDS011;47070;49.212;8.084;2022-07-24T16:14:25;2.78;;;2.50;;
61206;SDS011;47070;49.212;8.084;2022-07-24T16:18:25;3.22;;;2.00;;
61206;SDS011;47070;49.212;8.084;2022-07-24T16:22:26;2.38;;;2.03;;
61206;SDS011;47070;49.212;8.084;2022-07-24T16:26:27;3.10;;;2.40;;
61206;SDS011;47070;49.212;8.084;2022-07-24T16:30:27;3.28;;;2.38;;
61206;SDS011;47070;49.212;8.084;2022-07-24T16:34:28;3.88;;;2.60;;
61206;SDS011;47070;49.212;8.084;2022-07-24T16:38:28;3.22;;;2.22;;
61206;SDS011;47070;49.212;8.084;2022-07-24T16:42:29;2.28;;;2.08;;
61206;SDS011;47070;49.212;8.084;2022-07-24T16:46:29;2.20;;;2.03;;
61206;SDS011;47070;49.212;8.084;2022-07-24T16:50:30;3.83;;;2.47;;
61206;SDS011;47070;49.212;8.084;2022-07-24T16:54:31;3.13;;;1.98;;
61206;SDS011;47070;49.212;8.084;2022-07-24T16:58:31;3.35;;;2.13;;
61206;SDS011;47070;49.212;8.084;2022-07-24T17:02:32;2.83;;;2.40;;
61206;SDS011;47070;49.212;8.084;2022-07-24T17:06:32;2.40;;;2.20;;
61206;SDS011;47070;49.212;8.084;2022-07-24T17:10:33;2.20;;;2.00;;
61206;SDS011;47070;49.212;8.084;2022-07-24T17:14:33;2.50;;;2.30;;
61206;SDS011;47070;49.212;8.084;2022-07-24T17:18:34;4.95;;;2.33;;
61206;SDS011;47070;49.212;8.084;2022-07-24T17:22:35;2.70;;;2.10;;
61206;SDS011;47070;49.212;8.084;2022-07-24T17:26:36;2.80;;;2.40;;
61206;SDS011;47070;49.212;8.084;2022-07-24T17:30:37;2.88;;;2.20;;
61206;SDS011;47070;49.212;8.084;2022-07-24T17:34:38;3.00;;;2.40;;
61206;SDS011;47070;49.212;8.084;2022-07-24T17:38:39;2.80;;;2.47;;
61206;SDS011;47070;49.212;8.084;2022-07-24T17:42:39;2.60;;;2.40;;
61206;SDS011;47070;49.212;8.084;2022-07-24T17:46:40;2.53;;;2.28;;
61206;SDS011;47070;49.212;8.084;2022-07-24T17:50:41;2.40;;;2.05;;
61206;SDS011;47070;49.212;8.084;2022-07-24T17:54:41;3.33;;;3.00;;
61206;SDS011;47070;49.212;8.084;2022-07-24T17:58:42;3.50;;;3.20;;
61206;SDS011;47070;49.212;8.084;2022-07-24T18:02:42;3.75;;;3.17;;
61206;SDS011;47070;49.212;8.084;2022-07-24T18:06:43;3.30;;;3.00;;
61206;SDS011;47070;49.212;8.084;2022-07-24T18:10:43;2.83;;;2.63;;
61206;SDS011;47070;49.212;8.084;2022-07-24T18:14:44;3.35;;;3.05;;
61206;SDS011;47070;49.212;8.084;2022-07-24T18:18:45;4.03;;;3.03;;
61206;SDS011;47070;49.212;8.084;2022-07-24T18:22:46;3.47;;;3.17;;
61206;SDS011;47070;49.212;8.084;2022-07-24T18:26:46;4.22;;;3.55;;
61206;SDS011;47070;49.212;8.084;2022-07-24T18:30:47;4.00;;;3.22;;
61206;SDS011;47070;49.212;8.084;2022-07-24T18:34:47;7.50;;;4.15;;
61206;SDS011;47070;49.212;8.084;2022-07-24T18:38:48;5.85;;;3.38;;
61206;SDS011;47070;49.212;8.084;2022-07-24T18:42:49;3.97;;;3.45;;
61206;SDS011;47070;49.212;8.084;2022-07-24T18:46:50;4.93;;;3.10;;
61206;SDS011;47070;49.212;8.084;2022-07-24T18:50:50;3.67;;;3.03;;
61206;SDS011;47070;49.212;8.084;2022-07-24T18:54:51;4.85;;;3.40;;
61206;SDS011;47070;49.212;8.084;2022-07-24T18:58:51;4.20;;;2.90;;
61206;SDS011;47070;49.212;8.084;2022-07-24T19:02:52;4.88;;;3.10;;
61206;SDS011;47070;49.212;8.084;2022-07-24T19:06:52;3.45;;;3.15;;
61206;SDS011;47070;49.212;8.084;2022-07-24T19:10:53;3.55;;;2.88;;
61206;SDS011;47070;49.212;8.084;2022-07-24T19:14:53;4.68;;;2.92;;
61206;SDS011;47070;49.212;8.084;2022-07-24T19:18:54;4.28;;;3.20;;
61206;SDS011;47070;49.212;8.084;2022-07-24T19:22:55;4.60;;;3.28;;
61206;SDS011;47070;49.212;8.084;2022-07-24T19:26:56;4.10;;;3.30;;
61206;SDS011;47070;49.212;8.084;2022-07-24T19:30:57;5.63;;;2.95;;
61206;SDS011;47070;49.212;8.084;2022-07-24T19:34:57;4.82;;;3.50;;
61206;SDS011;47070;49.212;8.084;2022-07-24T19:38:58;4.15;;;3.35;;
61206;SDS011;47070;49.212;8.084;2022-07-24T19:42:59;4.18;;;3.17;;
61206;SDS011;47070;49.212;8.084;2022-07-24T19:46:59;3.60;;;2.95;;
61206;SDS011;47070;49.212;8.084;2022-07-24T19:51:00;4.25;;;3.38;;
61206;SDS011;47070;49.212;8.084;2022-07-24T19:55:00;3.03;;;2.72;;
61206;SDS011;47070;49.212;8.084;2022-07-24T19:59:01;5.57;;;3.20;;
61206;SDS011;47070;49.212;8.084;2022-07-24T20:03:01;4.10;;;3.10;;
61206;SDS011;47070;49.212;8.084;2022-07-24T20:07:02;3.78;;;2.78;;
61206;SDS011;47070;49.212;8.084;2022-07-24T20:11:03;4.80;;;3.20;;
61206;SDS011;47070;49.212;8.084;2022-07-24T20:15:04;4.53;;;3.13;;
61206;SDS011;47070;49.212;8.084;2022-07-24T20:19:05;3.50;;;3.20;;
61206;SDS011;47070;49.212;8.084;2022-07-24T20:23:06;5.45;;;3.15;;
61206;SDS011;47070;49.212;8.084;2022-07-24T20:27:08;3.47;;;3.15;;
61206;SDS011;47070;49.212;8.084;2022-07-24T20:31:08;3.50;;;3.20;;
61206;SDS011;47070;49.212;8.084;2022-07-24T20:35:09;3.38;;;2.97;;
61206;SDS011;47070;49.212;8.084;2022-07-24T20:39:09;4.00;;;2.80;;
61206;SDS011;47070;49.212;8.084;2022-07-24T20:43:10;4.15;;;3.53;;
61206;SDS011;47070;49.212;8.084;2022-07-24T20:47:10;3.97;;;3.08;;
61206;SDS011;47070;49.212;8.084;2022-07-24T20:51:11;4.45;;;3.00;;
61206;SDS011;47070;49.212;8.084;2022-07-24T20:55:11;3.40;;;3.05;;
61206;SDS011;47070;49.212;8.084;2022-07-24T20:59:12;4.05;;;3.15;;
61206;SDS011;47070;49.212;8.084;2022-07-24T21:03:12;4.25;;;3.03;;
61206;SDS011;47070;49.212;8.084;2022-07-24T21:07:13;4.82;;;3.75;;
61206;SDS011;47070;49.212;8.084;2022-07-24T21:11:14;5.82;;;3.55;;
61206;SDS011;47070;49.212;8.084;2022-07-24T21:15:15;4.72;;;3.33;;
61206;SDS011;47070;49.212;8.084;2022-07-24T21:19:15;5.40;;;3.47;;
61206;SDS011;47070;49.212;8.084;2022-07-24T21:23:16;4.15;;;3.33;;
61206;SDS011;47070;49.212;8.084;2022-07-24T21:27:17;4.03;;;3.28;;
61206;SDS011;47070;49.212;8.084;2022-07-24T21:31:18;4.80;;;3.53;;
61206;SDS011;47070;49.212;8.084;2022-07-24T21:35:18;4.22;;;3.35;;
61206;SDS011;47070;49.212;8.084;2022-07-24T21:39:19;5.07;;;3.58;;
61206;SDS011;47070;49.212;8.084;2022-07-24T21:43:20;4.28;;;3.50;;
61206;SDS011;47070;49.212;8.084;2022-07-24T21:47:20;7.47;;;3.28;;
61206;SDS011;47070;49.212;8.084;2022-07-24T21:51:21;4.38;;;3.35;;
61206;SDS011;47070;49.212;8.084;2022-07-24T21:55:21;4.80;;;3.33;;
61206;SDS011;47070;49.212;8.084;2022-07-24T21:59:23;4.13;;;3.28;;
61206;SDS011;47070;49.212;8.084;2022-07-24T22:03:23;3.50;;;3.20;;
61206;SDS011;47070;49.212;8.084;2022-07-24T22:07:24;4.25;;;3.33;;
61206;SDS011;47070;49.212;8.084;2022-07-24T22:11:24;4.00;;;3.60;;
61206;SDS011;47070;49.212;8.084;2022-07-24T22:15:25;4.43;;;3.70;;
61206;SDS011;47070;49.212;8.084;2022-07-24T22:19:26;3.33;;;3.03;;
61206;SDS011;47070;49.212;8.084;2022-07-24T22:23:26;5.43;;;3.70;;
61206;SDS011;47070;49.212;8.084;2022-07-24T22:27:27;4.07;;;3.63;;
61206;SDS011;47070;49.212;8.084;2022-07-24T22:31:27;6.13;;;3.60;;
61206;SDS011;47070;49.212;8.084;2022-07-24T22:35:28;5.70;;;3.55;;
61206;SDS011;47070;49.212;8.084;2022-07-24T22:39:29;3.72;;;3.22;;
61206;SDS011;47070;49.212;8.084;2022-07-24T22:43:30;5.55;;;3.60;;
61206;SDS011;47070;49.212;8.084;2022-07-24T22:47:32;4.35;;;3.90;;
61206;SDS011;47070;49.212;8.084;2022-07-24T22:51:33;7.53;;;3.90;;
61206;SDS011;47070;49.212;8.084;2022-07-24T22:55:34;5.43;;;4.05;;
61206;SDS011;47070;49.212;8.084;2022-07-24T22:59:35;3.97;;;3.47;;
61206;SDS011;47070;49.212;8.084;2022-07-24T23:03:36;5.93;;;4.10;;
61206;SDS011;47070;49.212;8.084;2022-07-24T23:07:37;4.78;;;3.78;;
61206;SDS011;47070;49.212;8.084;2022-07-24T23:11:37;6.03;;;3.70;;
61206;SDS011;47070;49.212;8.084;2022-07-24T23:15:38;3.88;;;3.42;;
61206;SDS011;47070;49.212;8.084;2022-07-24T23:19:38;3.80;;;3.40;;
61206;SDS011;47070;49.212;8.084;2022-07-24T23:23:39;5.22;;;3.63;;
61206;SDS011;47070;49.212;8.084;2022-07-24T23:27:39;4.30;;;3.88;;
61206;SDS011;47070;49.212;8.084;2022-07-24T23:31:40;4.47;;;3.70;;
61206;SDS011;47070;49.212;8.084;2022-07-24T23:35:41;6.47;;;4.82;;
61206;SDS011;47070;49.212;8.084;2022-07-24T23:39:42;5.15;;;4.47;;
61206;SDS011;47070;49.212;8.084;2022-07-24T23:43:44;5.22;;;3.38;;
61206;SDS011;47070;49.212;8.084;2022-07-24T23:47:44;5.57;;;4.00;;
61206;SDS011;47070;49.212;8.084;2022-07-24T23:51:44;4.45;;;4.05;;
61206;SDS011;47070;49.212;8.084;2022-07-24T23:55:45;5.20;;;3.90;;
61206;SDS011;47070;49.212;8.084;2022-07-24T23:59:46;7.53;;;4.57;;
